sensor_id;sensor_type;location;lat;lon;timestamp;pressure;altitude;pressure_sealevel;temperature;humidity
48386;BME280;34644;47.964;7.982;2024-01-10T00:00:21;97210.88;;;15.73;52.31
48386;BME280;34644;47.964;7.982;2024-01-10T00:07:21;97202.06;;;15.73;52.43
48386;BME280;34644;47.964;7.982;2024-01-10T00:14:22;97207.13;;;15.74;52.32
48386;BME280;34644;47.964;7.982;2024-01-10T00:21:22;97194.66;;;15.75;52.42
48386;BME280;34644;47.964;7.982;2024-01-10T00:28:22;97201.56;;;15.76;52.33
48386;BME280;34644;47.964;7.982;2024-01-10T00:35:23;97171.31;;;15.77;52.14
48386;BME280;34644;47.964;7.982;2024-01-10T00:42:23;97180.03;;;15.72;52.30
48386;BME280;34644;47.964;7.982;2024-01-10T00:49:23;97176.56;;;15.72;52.37
48386;BME280;34644;47.964;7.982;2024-01-10T00:56:23;97171.53;;;15.76;52.34
48386;BME280;34644;47.964;7.982;2024-01-10T01:03:24;97182.69;;;15.72;52.34
48386;BME280;34644;47.964;7.982;2024-01-10T01:10:24;97189.88;;;15.72;52.48
48386;BME280;34644;47.964;7.982;2024-01-10T01:17:24;97188.00;;;15.72;52.53
48386;BME280;34644;47.964;7.982;2024-01-10T01:24:24;97187.19;;;15.72;52.53
48386;BME280;34644;47.964;7.982;2024-01-10T01:31:25;97193.81;;;15.69;52.62
48386;BME280;34644;47.964;7.982;2024-01-10T01:38:25;97190.13;;;15.70;52.58
48386;BME280;34644;47.964;7.982;2024-01-10T01:45:25;97190.38;;;15.69;52.63
48386;BME280;34644;47.964;7.982;2024-01-10T01:52:26;97187.72;;;15.69;52.80
48386;BME280;34644;47.964;7.982;2024-01-10T01:59:26;97199.41;;;15.73;52.74
48386;BME280;34644;47.964;7.982;2024-01-10T02:06:27;97205.81;;;15.72;52.58
48386;BME280;34644;47.964;7.982;2024-01-10T02:13:27;97213.28;;;15.75;52.60
48386;BME280;34644;47.964;7.982;2024-01-10T02:20:28;97216.97;;;15.74;52.56
48386;BME280;34644;47.964;7.982;2024-01-10T02:27:28;97224.41;;;15.72;52.54
48386;BME280;34644;47.964;7.982;2024-01-10T02:34:29;97230.75;;;15.71;52.65
48386;BME280;34644;47.964;7.982;2024-01-10T02:41:29;97238.72;;;15.71;52.75
48386;BME280;34644;47.964;7.982;2024-01-10T02:48:32;97226.50;;;15.70;52.61
48386;BME280;34644;47.964;7.982;2024-01-10T02:55:32;97217.47;;;15.71;52.55
48386;BME280;34644;47.964;7.982;2024-01-10T03:02:33;97225.69;;;15.69;52.65
48386;BME280;34644;47.964;7.982;2024-01-10T03:09:33;97220.94;;;15.71;52.76
48386;BME280;34644;47.964;7.982;2024-01-10T03:16:33;97216.44;;;15.72;52.71
48386;BME280;34644;47.964;7.982;2024-01-10T03:23:33;97216.97;;;15.74;52.68
48386;BME280;34644;47.964;7.982;2024-01-10T03:30:34;97217.78;;;15.74;52.46
48386;BME280;34644;47.964;7.982;2024-01-10T03:37:34;97208.75;;;15.76;52.52
48386;BME280;34644;47.964;7.982;2024-01-10T03:44:35;97198.91;;;15.76;52.57
48386;BME280;34644;47.964;7.982;2024-01-10T03:51:35;97195.47;;;15.76;52.53
48386;BME280;34644;47.964;7.982;2024-01-10T03:58:35;97188.78;;;15.73;52.60
48386;BME280;34644;47.964;7.982;2024-01-10T04:05:35;97198.63;;;15.72;52.56
48386;BME280;34644;47.964;7.982;2024-01-10T04:12:36;97191.69;;;15.71;52.63
48386;BME280;34644;47.964;7.982;2024-01-10T04:19:37;97183.19;;;15.69;52.70
48386;BME280;34644;47.964;7.982;2024-01-10T04:26:37;97171.50;;;15.70;52.69
48386;BME280;34644;47.964;7.982;2024-01-10T04:33:38;97178.41;;;15.71;52.68
48386;BME280;34644;47.964;7.982;2024-01-10T04:40:38;97181.31;;;15.70;52.54
48386;BME280;34644;47.964;7.982;2024-01-10T04:47:38;97187.84;;;15.57;53.00
48386;BME280;34644;47.964;7.982;2024-01-10T04:54:38;97192.13;;;15.58;53.25
48386;BME280;34644;47.964;7.982;2024-01-10T05:01:39;97199.84;;;15.60;53.47
48386;BME280;34644;47.964;7.982;2024-01-10T05:08:39;97197.72;;;15.62;53.53
48386;BME280;34644;47.964;7.982;2024-01-10T05:15:39;97211.31;;;15.65;53.63
48386;BME280;34644;47.964;7.982;2024-01-10T05:22:40;97206.22;;;15.64;53.60
48386;BME280;34644;47.964;7.982;2024-01-10T05:29:42;97210.88;;;10.25;41.44
48386;BME280;34644;47.964;7.982;2024-01-10T05:36:43;97208.94;;;14.19;43.74
48386;BME280;34644;47.964;7.982;2024-01-10T05:43:43;97211.19;;;14.83;47.91
48386;BME280;34644;47.964;7.982;2024-01-10T05:50:44;97202.06;;;14.96;49.09
48386;BME280;34644;47.964;7.982;2024-01-10T05:57:44;97205.41;;;15.09;49.44
48386;BME280;34644;47.964;7.982;2024-01-10T06:04:44;97199.41;;;15.18;49.95
48386;BME280;34644;47.964;7.982;2024-01-10T06:11:44;97195.19;;;15.23;50.42
48386;BME280;34644;47.964;7.982;2024-01-10T06:18:45;97186.97;;;15.24;50.89
48386;BME280;34644;47.964;7.982;2024-01-10T06:25:46;97192.03;;;15.26;51.16
48386;BME280;34644;47.964;7.982;2024-01-10T06:32:46;97195.25;;;15.28;51.21
48386;BME280;34644;47.964;7.982;2024-01-10T06:39:46;97201.41;;;15.33;51.39
48386;BME280;34644;47.964;7.982;2024-01-10T06:46:47;97208.63;;;15.38;51.58
48386;BME280;34644;47.964;7.982;2024-01-10T06:53:47;97211.28;;;15.38;51.58
48386;BME280;34644;47.964;7.982;2024-01-10T07:00:47;97224.06;;;15.41;51.52
48386;BME280;34644;47.964;7.982;2024-01-10T07:07:47;97235.50;;;15.42;51.75
48386;BME280;34644;47.964;7.982;2024-01-10T07:14:49;97227.03;;;15.45;51.88
48386;BME280;34644;47.964;7.982;2024-01-10T07:21:50;97237.16;;;15.48;51.90
48386;BME280;34644;47.964;7.982;2024-01-10T07:28:50;97250.78;;;15.51;52.07
48386;BME280;34644;47.964;7.982;2024-01-10T07:35:50;97251.84;;;15.55;52.25
48386;BME280;34644;47.964;7.982;2024-01-10T07:42:53;97248.94;;;15.57;52.35
48386;BME280;34644;47.964;7.982;2024-01-10T07:49:53;97252.97;;;15.60;52.28
48386;BME280;34644;47.964;7.982;2024-01-10T07:56:53;97251.34;;;15.59;52.41
48386;BME280;34644;47.964;7.982;2024-01-10T08:03:54;97258.84;;;15.62;52.29
48386;BME280;34644;47.964;7.982;2024-01-10T08:10:55;97256.97;;;15.62;52.34
48386;BME280;34644;47.964;7.982;2024-01-10T08:17:56;97254.06;;;15.64;52.36
48386;BME280;34644;47.964;7.982;2024-01-10T08:24:56;97253.28;;;15.63;52.31
48386;BME280;34644;47.964;7.982;2024-01-10T08:31:56;97247.16;;;15.63;52.36
48386;BME280;34644;47.964;7.982;2024-01-10T08:38:57;97251.66;;;15.62;52.44
48386;BME280;34644;47.964;7.982;2024-01-10T08:45:57;97247.41;;;15.61;52.40
48386;BME280;34644;47.964;7.982;2024-01-10T08:52:57;97254.31;;;15.62;52.36
48386;BME280;34644;47.964;7.982;2024-01-10T08:59:58;97262.28;;;15.62;52.42
48386;BME280;34644;47.964;7.982;2024-01-10T09:06:58;97261.25;;;15.63;52.38
48386;BME280;34644;47.964;7.982;2024-01-10T09:13:58;97272.91;;;15.62;52.41
48386;BME280;34644;47.964;7.982;2024-01-10T09:20:59;97275.56;;;15.62;52.22
48386;BME280;34644;47.964;7.982;2024-01-10T09:27:59;97273.72;;;15.63;52.27
48386;BME280;34644;47.964;7.982;2024-01-10T09:34:59;97289.69;;;15.63;52.45
48386;BME280;34644;47.964;7.982;2024-01-10T09:42:00;97287.81;;;15.63;52.45
48386;BME280;34644;47.964;7.982;2024-01-10T09:49:01;97295.28;;;15.66;52.43
48386;BME280;34644;47.964;7.982;2024-01-10T09:56:03;97287.56;;;15.65;52.59
48386;BME280;34644;47.964;7.982;2024-01-10T10:03:03;97289.19;;;15.66;52.83
48386;BME280;34644;47.964;7.982;2024-01-10T10:10:04;97300.34;;;15.68;52.66
48386;BME280;34644;47.964;7.982;2024-01-10T10:17:14;97305.16;;;15.71;52.77
48386;BME280;34644;47.964;7.982;2024-01-10T10:24:18;97303.63;;;15.75;52.99
48386;BME280;34644;47.964;7.982;2024-01-10T10:31:18;97306.13;;;15.82;53.06
48386;BME280;34644;47.964;7.982;2024-01-10T10:38:21;97321.31;;;15.86;53.42
48386;BME280;34644;47.964;7.982;2024-01-10T10:45:21;97321.66;;;15.95;53.60
48386;BME280;34644;47.964;7.982;2024-01-10T10:52:26;97325.13;;;15.96;53.91
48386;BME280;34644;47.964;7.982;2024-01-10T10:59:27;97318.50;;;15.98;53.86
48386;BME280;34644;47.964;7.982;2024-01-10T11:06:27;97311.63;;;16.02;54.17
48386;BME280;34644;47.964;7.982;2024-01-10T11:13:41;97308.47;;;16.05;54.34
48386;BME280;34644;47.964;7.982;2024-01-10T11:28:04;97294.72;;;16.14;54.75
48386;BME280;34644;47.964;7.982;2024-01-10T11:35:05;97287.28;;;16.16;54.84
48386;BME280;34644;47.964;7.982;2024-01-10T11:42:11;97275.09;;;16.20;55.15
48386;BME280;34644;47.964;7.982;2024-01-10T11:49:13;97275.34;;;16.18;53.98
48386;BME280;34644;47.964;7.982;2024-01-10T11:56:16;97267.91;;;16.20;54.13
48386;BME280;34644;47.964;7.982;2024-01-10T12:03:17;97264.22;;;16.21;54.12
48386;BME280;34644;47.964;7.982;2024-01-10T12:10:19;97266.09;;;16.21;54.21
48386;BME280;34644;47.964;7.982;2024-01-10T12:17:19;97265.78;;;16.22;54.31
48386;BME280;34644;47.964;7.982;2024-01-10T12:24:19;97262.88;;;16.24;54.33
48386;BME280;34644;47.964;7.982;2024-01-10T12:31:20;97263.44;;;16.26;54.43
48386;BME280;34644;47.964;7.982;2024-01-10T12:38:22;97258.13;;;16.26;54.39
48386;BME280;34644;47.964;7.982;2024-01-10T12:45:23;97270.09;;;16.28;54.58
48386;BME280;34644;47.964;7.982;2024-01-10T12:52:23;97266.41;;;16.30;54.57
48386;BME280;34644;47.964;7.982;2024-01-10T12:59:24;97268.00;;;16.31;54.84
48386;BME280;34644;47.964;7.982;2024-01-10T13:06:24;97260.78;;;16.26;53.74
48386;BME280;34644;47.964;7.982;2024-01-10T13:13:25;97257.13;;;16.32;54.74
48386;BME280;34644;47.964;7.982;2024-01-10T13:20:25;97256.63;;;16.35;55.33
48386;BME280;34644;47.964;7.982;2024-01-10T13:27:25;97265.94;;;16.38;55.87
48386;BME280;34644;47.964;7.982;2024-01-10T13:34:26;97273.41;;;16.41;56.25
48386;BME280;34644;47.964;7.982;2024-01-10T13:41:26;97275.00;;;16.42;56.52
48386;BME280;34644;47.964;7.982;2024-01-10T13:48:26;97286.69;;;16.41;56.90
48386;BME280;34644;47.964;7.982;2024-01-10T13:55:26;97284.03;;;16.41;56.93
48386;BME280;34644;47.964;7.982;2024-01-10T14:02:27;97279.78;;;16.40;57.24
48386;BME280;34644;47.964;7.982;2024-01-10T14:09:27;97294.13;;;16.39;57.28
48386;BME280;34644;47.964;7.982;2024-01-10T14:16:27;97290.94;;;16.37;57.35
48386;BME280;34644;47.964;7.982;2024-01-10T14:23:28;97296.00;;;16.38;57.34
48386;BME280;34644;47.964;7.982;2024-01-10T14:30:28;97294.13;;;16.39;57.51
48386;BME280;34644;47.964;7.982;2024-01-10T14:37:28;97296.53;;;16.40;57.50
48386;BME280;34644;47.964;7.982;2024-01-10T14:44:28;97297.34;;;16.41;57.73
48386;BME280;34644;47.964;7.982;2024-01-10T14:51:29;97286.16;;;16.39;57.57
48386;BME280;34644;47.964;7.982;2024-01-10T14:58:29;97287.78;;;16.40;57.62
48386;BME280;34644;47.964;7.982;2024-01-10T15:05:29;97280.56;;;16.35;57.66
48386;BME280;34644;47.964;7.982;2024-01-10T15:12:30;97280.56;;;16.35;57.55
48386;BME280;34644;47.964;7.982;2024-01-10T15:19:30;97268.56;;;16.33;57.56
48386;BME280;34644;47.964;7.982;2024-01-10T15:26:31;97268.56;;;16.33;57.39
48386;BME280;34644;47.964;7.982;2024-01-10T15:33:33;97274.66;;;16.33;57.25
48386;BME280;34644;47.964;7.982;2024-01-10T15:40:34;97272.75;;;16.28;57.16
48386;BME280;34644;47.964;7.982;2024-01-10T15:47:34;97276.50;;;16.27;56.93
48386;BME280;34644;47.964;7.982;2024-01-10T15:54:34;97284.47;;;16.27;56.83
48386;BME280;34644;47.964;7.982;2024-01-10T16:01:37;97289.81;;;16.27;56.64
48386;BME280;34644;47.964;7.982;2024-01-10T16:08:37;97291.38;;;16.28;56.53
48386;BME280;34644;47.964;7.982;2024-01-10T16:15:38;97302.84;;;16.29;56.33
48386;BME280;34644;47.964;7.982;2024-01-10T16:22:38;97305.50;;;16.29;56.20
48386;BME280;34644;47.964;7.982;2024-01-10T16:29:39;97318.47;;;16.25;56.16
48386;BME280;34644;47.964;7.982;2024-01-10T16:36:40;97311.72;;;16.13;56.68
48386;BME280;34644;47.964;7.982;2024-01-10T16:43:40;97318.94;;;16.17;56.62
48386;BME280;34644;47.964;7.982;2024-01-10T16:50:40;97325.34;;;16.16;56.87
48386;BME280;34644;47.964;7.982;2024-01-10T16:57:40;97332.50;;;16.16;56.84
48386;BME280;34644;47.964;7.982;2024-01-10T17:04:41;97334.91;;;16.17;56.83
48386;BME280;34644;47.964;7.982;2024-01-10T17:11:41;97330.16;;;16.19;56.70
48386;BME280;34644;47.964;7.982;2024-01-10T17:18:42;97331.75;;;16.20;56.79
48386;BME280;34644;47.964;7.982;2024-01-10T17:25:42;97333.34;;;16.21;56.57
48386;BME280;34644;47.964;7.982;2024-01-10T17:32:42;97326.41;;;16.20;56.55
48386;BME280;34644;47.964;7.982;2024-01-10T17:39:43;97334.16;;;16.22;56.58
48386;BME280;34644;47.964;7.982;2024-01-10T17:46:43;97336.81;;;16.22;56.51
48386;BME280;34644;47.964;7.982;2024-01-10T17:53:44;97338.69;;;16.21;56.57
48386;BME280;34644;47.964;7.982;2024-01-10T18:00:44;97334.97;;;10.74;43.66
48386;BME280;34644;47.964;7.982;2024-01-10T18:07:45;97339.84;;;14.81;45.47
48386;BME280;34644;47.964;7.982;2024-01-10T18:14:48;97340.84;;;15.31;49.11
48386;BME280;34644;47.964;7.982;2024-01-10T18:21:51;97341.75;;;15.42;50.43
48386;BME280;34644;47.964;7.982;2024-01-10T18:28:51;97347.19;;;15.52;51.33
48386;BME280;34644;47.964;7.982;2024-01-10T18:35:52;97350.22;;;15.61;51.79
48386;BME280;34644;47.964;7.982;2024-01-10T18:42:52;97356.16;;;15.68;52.15
48386;BME280;34644;47.964;7.982;2024-01-10T18:49:52;97358.06;;;15.72;52.61
48386;BME280;34644;47.964;7.982;2024-01-10T18:56:56;97360.03;;;15.77;52.75
48386;BME280;34644;47.964;7.982;2024-01-10T19:03:57;97367.25;;;15.82;52.94
48386;BME280;34644;47.964;7.982;2024-01-10T19:10:57;97368.03;;;15.82;53.14
48386;BME280;34644;47.964;7.982;2024-01-10T19:17:57;97361.09;;;15.81;53.38
48386;BME280;34644;47.964;7.982;2024-01-10T19:24:58;97371.19;;;15.79;53.45
48386;BME280;34644;47.964;7.982;2024-01-10T19:31:58;97363.22;;;15.79;53.46
48386;BME280;34644;47.964;7.982;2024-01-10T19:38:58;97371.75;;;15.81;53.59
48386;BME280;34644;47.964;7.982;2024-01-10T19:45:59;97370.16;;;15.80;53.66
48386;BME280;34644;47.964;7.982;2024-01-10T19:52:59;97373.34;;;15.82;53.75
48386;BME280;34644;47.964;7.982;2024-01-10T19:59:59;97381.88;;;15.84;53.46
48386;BME280;34644;47.964;7.982;2024-01-10T20:06:59;97379.78;;;15.86;53.52
48386;BME280;34644;47.964;7.982;2024-01-10T20:14:00;97390.19;;;15.88;53.47
48386;BME280;34644;47.964;7.982;2024-01-10T20:21:01;97395.25;;;15.89;53.43
48386;BME280;34644;47.964;7.982;2024-01-10T20:28:02;97407.97;;;15.87;53.50
48386;BME280;34644;47.964;7.982;2024-01-10T20:35:02;97414.91;;;15.88;53.32
48386;BME280;34644;47.964;7.982;2024-01-10T20:42:03;97413.84;;;15.89;53.45
48386;BME280;34644;47.964;7.982;2024-01-10T20:49:03;97412.78;;;15.90;53.28
48386;BME280;34644;47.964;7.982;2024-01-10T20:56:03;97415.69;;;15.89;53.26
48386;BME280;34644;47.964;7.982;2024-01-10T21:03:04;97413.28;;;15.87;53.33
48386;BME280;34644;47.964;7.982;2024-01-10T21:10:05;97414.34;;;15.86;53.19
48386;BME280;34644;47.964;7.982;2024-01-10T21:17:05;97407.41;;;15.85;53.19
48386;BME280;34644;47.964;7.982;2024-01-10T21:24:05;97411.69;;;15.86;53.21
48386;BME280;34644;47.964;7.982;2024-01-10T21:31:06;97404.75;;;15.85;53.34
48386;BME280;34644;47.964;7.982;2024-01-10T21:38:06;97411.59;;;15.81;53.32
48386;BME280;34644;47.964;7.982;2024-01-10T21:45:06;97401.50;;;15.78;53.44
48386;BME280;34644;47.964;7.982;2024-01-10T21:52:06;97397.44;;;15.76;53.57
48386;BME280;34644;47.964;7.982;2024-01-10T21:59:07;97406.22;;;15.76;53.58
48386;BME280;34644;47.964;7.982;2024-01-10T22:06:07;97399.09;;;15.77;53.57
48386;BME280;34644;47.964;7.982;2024-01-10T22:13:07;97392.38;;;15.74;53.66
48386;BME280;34644;47.964;7.982;2024-01-10T22:20:11;97391.13;;;15.77;53.81
48386;BME280;34644;47.964;7.982;2024-01-10T22:27:11;97391.13;;;15.77;53.71
48386;BME280;34644;47.964;7.982;2024-01-10T22:34:12;97386.59;;;15.77;53.55
48386;BME280;34644;47.964;7.982;2024-01-10T22:41:12;97384.94;;;15.76;53.52
48386;BME280;34644;47.964;7.982;2024-01-10T22:48:14;97385.19;;;15.74;53.59
48386;BME280;34644;47.964;7.982;2024-01-10T22:55:14;97378.84;;;15.76;53.54
48386;BME280;34644;47.964;7.982;2024-01-10T23:02:14;97378.84;;;15.76;53.52
48386;BME280;34644;47.964;7.982;2024-01-10T23:09:14;97376.44;;;15.74;53.59
48386;BME280;34644;47.964;7.982;2024-01-10T23:16:15;97368.94;;;15.71;53.62
48386;BME280;34644;47.964;7.982;2024-01-10T23:23:15;97373.22;;;15.72;53.50
48386;BME280;34644;47.964;7.982;2024-01-10T23:30:16;97364.66;;;15.70;53.56
48386;BME280;34644;47.964;7.982;2024-01-10T23:37:16;97365.25;;;15.72;53.50
48386;BME280;34644;47.964;7.982;2024-01-10T23:44:16;97370.00;;;15.70;53.38
48386;BME280;34644;47.964;7.982;2024-01-10T23:51:16;97371.78;;;15.64;53.54
48386;BME280;34644;47.964;7.982;2024-01-10T23:58:17;97370.97;;;15.64;53.67
